SAS9521 ENZV-ENCN
Flight info
| Callsign | SAS9521 |
|---|---|
| Flight time | 0h 26m |
| Altitude | 15000 |
| Route | PEVEB |
| Aircraft | B737/M-SDE2E3FGHIRWXY/LB1 |
Departure
| Time | 2026-04-23 12:24 |
|---|---|
| Airport | Stavanger Airport, Sola (ENZV) |
Arrival
| Time | 2026-04-23 12:51 |
|---|---|
| Airport | Kristiansand Airport (ENCN) |
| Time | Latitude | Longitude | Altitude | Speed | Heading |
|---|---|---|---|---|---|
| 2026-04-23 11:26 | 58.88159 | 5.63069 | 28 ft | 0 kts | 315° |
| 2026-04-23 12:16 | 58.88159 | 5.63070 | 25 ft | 0 kts | 315° |
| 2026-04-23 12:16 | 58.88144 | 5.63099 | 27 ft | 4 kts | 315° |
| 2026-04-23 12:17 | 58.88124 | 5.63135 | 28 ft | 4 kts | 315° |
| 2026-04-23 12:17 | 58.88105 | 5.63171 | 27 ft | 3 kts | 315° |
| 2026-04-23 12:17 | 58.88103 | 5.63176 | 27 ft | 1 kts | 315° |
| 2026-04-23 12:19 | 58.88103 | 5.63174 | 27 ft | 1 kts | 314° |
| 2026-04-23 12:20 | 58.88086 | 5.63136 | 30 ft | 9 kts | 198° |
| 2026-04-23 12:20 | 58.88017 | 5.63107 | 26 ft | 11 kts | 171° |
| 2026-04-23 12:20 | 58.87965 | 5.63201 | 27 ft | 11 kts | 112° |
| 2026-04-23 12:20 | 58.87932 | 5.63334 | 30 ft | 11 kts | 151° |
| 2026-04-23 12:21 | 58.87859 | 5.63300 | 30 ft | 11 kts | 200° |
| 2026-04-23 12:21 | 58.87784 | 5.63286 | 30 ft | 11 kts | 178° |
| 2026-04-23 12:21 | 58.87668 | 5.63295 | 30 ft | 22 kts | 178° |
| 2026-04-23 12:21 | 58.87499 | 5.63298 | 30 ft | 25 kts | 180° |
| 2026-04-23 12:22 | 58.87333 | 5.63302 | 30 ft | 23 kts | 178° |
| 2026-04-23 12:22 | 58.87175 | 5.63308 | 31 ft | 22 kts | 180° |
| 2026-04-23 12:22 | 58.87064 | 5.63311 | 32 ft | 13 kts | 177° |
| 2026-04-23 12:22 | 58.86980 | 5.63404 | 31 ft | 17 kts | 137° |
| 2026-04-23 12:23 | 58.86950 | 5.63619 | 33 ft | 17 kts | 87° |
| 2026-04-23 12:23 | 58.87002 | 5.63796 | 35 ft | 17 kts | 14° |
| 2026-04-23 12:23 | 58.87218 | 5.63796 | 33 ft | 62 kts | 358° |
| 2026-04-23 12:23 | 58.87878 | 5.63769 | 35 ft | 125 kts | 353° |
| 2026-04-23 12:24 | 58.88838 | 5.63733 | 448 ft | 141 kts | 355° |
| 2026-04-23 12:24 | 58.89863 | 5.63732 | 1194 ft | 147 kts | 357° |
| 2026-04-23 12:24 | 58.90838 | 5.63741 | 2280 ft | 142 kts | 357° |
| 2026-04-23 12:24 | 58.91923 | 5.63668 | 2878 ft | 173 kts | 356° |
| 2026-04-23 12:25 | 58.93195 | 5.63531 | 3533 ft | 192 kts | 355° |
| 2026-04-23 12:25 | 58.94610 | 5.63455 | 4156 ft | 217 kts | 359° |
| 2026-04-23 12:25 | 58.96180 | 5.63465 | 5077 ft | 227 kts | 358° |
| 2026-04-23 12:25 | 58.97767 | 5.63448 | 6187 ft | 233 kts | 357° |
| 2026-04-23 12:26 | 58.99420 | 5.63380 | 7157 ft | 240 kts | 356° |
| 2026-04-23 12:26 | 59.00977 | 5.63286 | 8868 ft | 200 kts | 355° |
| 2026-04-23 12:26 | 59.02246 | 5.63227 | 10551 ft | 174 kts | 355° |
| 2026-04-23 12:26 | 59.03526 | 5.63345 | 10953 ft | 204 kts | 9° |
| 2026-04-23 12:27 | 59.04919 | 5.64646 | 11213 ft | 241 kts | 28° |
| 2026-04-23 12:27 | 59.06273 | 5.66892 | 11431 ft | 279 kts | 44° |
| 2026-04-23 12:27 | 59.07346 | 5.70214 | 12035 ft | 302 kts | 64° |
| 2026-04-23 12:27 | 59.07685 | 5.74345 | 12820 ft | 321 kts | 93° |
| 2026-04-23 12:28 | 59.07004 | 5.78547 | 13690 ft | 331 kts | 116° |
| 2026-04-23 12:28 | 59.05662 | 5.82229 | 14505 ft | 338 kts | 135° |
| 2026-04-23 12:28 | 59.03986 | 5.85417 | 15044 ft | 335 kts | 138° |
| 2026-04-23 12:28 | 59.02258 | 5.88468 | 15365 ft | 338 kts | 139° |
| 2026-04-23 12:29 | 59.00497 | 5.91524 | 15366 ft | 342 kts | 140° |
| 2026-04-23 12:29 | 58.98714 | 5.94623 | 15381 ft | 347 kts | 139° |
| 2026-04-23 12:29 | 58.96958 | 5.97702 | 15394 ft | 346 kts | 139° |
| 2026-04-23 12:29 | 58.95156 | 6.00885 | 15376 ft | 343 kts | 139° |
| 2026-04-23 12:30 | 58.93390 | 6.04019 | 15376 ft | 347 kts | 139° |
| 2026-04-23 12:30 | 58.91615 | 6.07175 | 15387 ft | 345 kts | 139° |
| 2026-04-23 12:30 | 58.89855 | 6.10311 | 15371 ft | 343 kts | 139° |
| 2026-04-23 12:30 | 58.88104 | 6.13429 | 15370 ft | 341 kts | 138° |
| 2026-04-23 12:31 | 58.86362 | 6.16530 | 15362 ft | 343 kts | 139° |
| 2026-04-23 12:31 | 58.84598 | 6.19664 | 15375 ft | 342 kts | 138° |
| 2026-04-23 12:31 | 58.82851 | 6.22766 | 15366 ft | 342 kts | 138° |
| 2026-04-23 12:31 | 58.81108 | 6.25855 | 15367 ft | 338 kts | 138° |
| 2026-04-23 12:32 | 58.79383 | 6.28910 | 15346 ft | 337 kts | 139° |
| 2026-04-23 12:32 | 58.77627 | 6.32012 | 15331 ft | 347 kts | 138° |
| 2026-04-23 12:32 | 58.75850 | 6.35148 | 15337 ft | 344 kts | 138° |
| 2026-04-23 12:32 | 58.74080 | 6.38269 | 15325 ft | 346 kts | 138° |
| 2026-04-23 12:33 | 58.72282 | 6.41433 | 15325 ft | 354 kts | 138° |
| 2026-04-23 12:33 | 58.70455 | 6.44643 | 15329 ft | 358 kts | 138° |
| 2026-04-23 12:33 | 58.68632 | 6.47843 | 15324 ft | 351 kts | 138° |
| 2026-04-23 12:33 | 58.66849 | 6.50969 | 15327 ft | 343 kts | 138° |
| 2026-04-23 12:34 | 58.65093 | 6.54042 | 15285 ft | 341 kts | 138° |
| 2026-04-23 12:34 | 58.63330 | 6.57123 | 15300 ft | 341 kts | 138° |
| 2026-04-23 12:34 | 58.61584 | 6.60171 | 15286 ft | 339 kts | 138° |
| 2026-04-23 12:34 | 58.59831 | 6.63225 | 15287 ft | 343 kts | 138° |
| 2026-04-23 12:35 | 58.58063 | 6.66302 | 15287 ft | 345 kts | 139° |
| 2026-04-23 12:35 | 58.56275 | 6.69410 | 15294 ft | 348 kts | 138° |
| 2026-04-23 12:35 | 58.54493 | 6.72504 | 15292 ft | 344 kts | 138° |
| 2026-04-23 12:35 | 58.52705 | 6.75600 | 15268 ft | 347 kts | 138° |
| 2026-04-23 12:36 | 58.50933 | 6.78744 | 15251 ft | 350 kts | 132° |
| 2026-04-23 12:36 | 58.49660 | 6.82683 | 15276 ft | 349 kts | 109° |
| 2026-04-23 12:36 | 58.49120 | 6.87161 | 15295 ft | 344 kts | 97° |
| 2026-04-23 12:36 | 58.48785 | 6.91658 | 15265 ft | 339 kts | 95° |
| 2026-04-23 12:37 | 58.48488 | 6.96083 | 15267 ft | 334 kts | 95° |
| 2026-04-23 12:37 | 58.48191 | 7.00505 | 15250 ft | 337 kts | 95° |
| 2026-04-23 12:37 | 58.47881 | 7.04955 | 15249 ft | 338 kts | 95° |
| 2026-04-23 12:37 | 58.47560 | 7.09402 | 15225 ft | 337 kts | 95° |
| 2026-04-23 12:38 | 58.47236 | 7.13790 | 14949 ft | 338 kts | 95° |
| 2026-04-23 12:38 | 58.46903 | 7.18226 | 14603 ft | 337 kts | 96° |
| 2026-04-23 12:38 | 58.46568 | 7.22636 | 14227 ft | 334 kts | 96° |
| 2026-04-23 12:38 | 58.46233 | 7.27009 | 13815 ft | 332 kts | 96° |
| 2026-04-23 12:39 | 58.45899 | 7.31362 | 13381 ft | 330 kts | 96° |
| 2026-04-23 12:39 | 58.45567 | 7.35673 | 12972 ft | 327 kts | 96° |
| 2026-04-23 12:39 | 58.45235 | 7.39956 | 12570 ft | 325 kts | 96° |
| 2026-04-23 12:39 | 58.44904 | 7.44200 | 12179 ft | 322 kts | 96° |
| 2026-04-23 12:40 | 58.44573 | 7.48418 | 11780 ft | 320 kts | 96° |
| 2026-04-23 12:40 | 58.44170 | 7.52597 | 11349 ft | 322 kts | 100° |
| 2026-04-23 12:40 | 58.43604 | 7.56742 | 10917 ft | 322 kts | 102° |
| 2026-04-23 12:40 | 58.43006 | 7.60839 | 10531 ft | 320 kts | 102° |
| 2026-04-23 12:41 | 58.42411 | 7.64944 | 10326 ft | 320 kts | 102° |
| 2026-04-23 12:41 | 58.41827 | 7.69064 | 10243 ft | 325 kts | 102° |
| 2026-04-23 12:41 | 58.41238 | 7.73278 | 9793 ft | 335 kts | 102° |
| 2026-04-23 12:41 | 58.40637 | 7.77591 | 9209 ft | 334 kts | 102° |
| 2026-04-23 12:42 | 58.40130 | 7.81833 | 8740 ft | 321 kts | 90° |
| 2026-04-23 12:42 | 58.40394 | 7.85894 | 8386 ft | 301 kts | 66° |
| 2026-04-23 12:42 | 58.41343 | 7.89342 | 7996 ft | 288 kts | 49° |
| 2026-04-23 12:42 | 58.42708 | 7.91981 | 7624 ft | 274 kts | 34° |
| 2026-04-23 12:43 | 58.44246 | 7.94098 | 7128 ft | 271 kts | 31° |
| 2026-04-23 12:43 | 58.45779 | 7.96114 | 6759 ft | 265 kts | 36° |
| 2026-04-23 12:43 | 58.46880 | 7.98905 | 6367 ft | 268 kts | 65° |
| 2026-04-23 12:43 | 58.47151 | 8.02401 | 6025 ft | 268 kts | 90° |
| 2026-04-23 12:44 | 58.46678 | 8.05837 | 5677 ft | 272 kts | 114° |
| 2026-04-23 12:44 | 58.45653 | 8.08879 | 5361 ft | 273 kts | 121° |
| 2026-04-23 12:44 | 58.44572 | 8.11794 | 5236 ft | 264 kts | 122° |
| 2026-04-23 12:44 | 58.43523 | 8.14614 | 5108 ft | 256 kts | 122° |
| 2026-04-23 12:45 | 58.42513 | 8.17352 | 4984 ft | 248 kts | 122° |
| 2026-04-23 12:45 | 58.41536 | 8.20004 | 4854 ft | 240 kts | 122° |
| 2026-04-23 12:45 | 58.40591 | 8.22578 | 4615 ft | 239 kts | 122° |
| 2026-04-23 12:45 | 58.39653 | 8.25130 | 4498 ft | 228 kts | 122° |
| 2026-04-23 12:46 | 58.38745 | 8.27583 | 4409 ft | 226 kts | 125° |
| 2026-04-23 12:46 | 58.37489 | 8.29341 | 4336 ft | 230 kts | 166° |
| 2026-04-23 12:46 | 58.35909 | 8.29203 | 4134 ft | 233 kts | 206° |
| 2026-04-23 12:46 | 58.34624 | 8.27429 | 3825 ft | 226 kts | 226° |
| 2026-04-23 12:47 | 58.33367 | 8.25645 | 3470 ft | 223 kts | 218° |
| 2026-04-23 12:47 | 58.32106 | 8.24025 | 3113 ft | 212 kts | 218° |
| 2026-04-23 12:47 | 58.30937 | 8.22482 | 2783 ft | 197 kts | 219° |
| 2026-04-23 12:47 | 58.29831 | 8.21086 | 2435 ft | 187 kts | 217° |
| 2026-04-23 12:48 | 58.28784 | 8.19689 | 2107 ft | 178 kts | 223° |
| 2026-04-23 12:48 | 58.27857 | 8.18274 | 1896 ft | 159 kts | 214° |
| 2026-04-23 12:48 | 58.26949 | 8.17249 | 1613 ft | 151 kts | 213° |
| 2026-04-23 12:48 | 58.26104 | 8.16160 | 1342 ft | 143 kts | 220° |
| 2026-04-23 12:49 | 58.25300 | 8.15011 | 1103 ft | 147 kts | 216° |
| 2026-04-23 12:49 | 58.24492 | 8.13892 | 903 ft | 140 kts | 218° |
| 2026-04-23 12:49 | 58.23732 | 8.12861 | 680 ft | 134 kts | 214° |
| 2026-04-23 12:49 | 58.22952 | 8.11852 | 537 ft | 138 kts | 214° |
| 2026-04-23 12:50 | 58.22159 | 8.10822 | 363 ft | 138 kts | 214° |
| 2026-04-23 12:50 | 58.21376 | 8.09792 | 166 ft | 133 kts | 212° |
| 2026-04-23 12:50 | 58.20664 | 8.08856 | 51 ft | 113 kts | 214° |
| 2026-04-23 12:50 | 58.20195 | 8.08234 | 51 ft | 58 kts | 214° |
| 2026-04-23 12:51 | 58.19944 | 8.07903 | 48 ft | 41 kts | 215° |
| 2026-04-23 12:51 | 58.19785 | 8.07691 | 46 ft | 20 kts | 215° |
| 2026-04-23 12:51 | 58.19719 | 8.07503 | 48 ft | 19 kts | 311° |
| 2026-04-23 12:51 | 58.19841 | 8.07413 | 48 ft | 19 kts | 342° |
| 2026-04-23 12:52 | 58.19919 | 8.07365 | 48 ft | 0 kts | 342° |
| 2026-04-23 12:52 | 58.19922 | 8.07363 | 48 ft | 2 kts | 342° |
| 2026-04-23 12:52 | 58.19949 | 8.07358 | 48 ft | 6 kts | 8° |
| 2026-04-23 12:53 | 58.20007 | 8.07389 | 49 ft | 11 kts | 25° |
| 2026-04-23 12:53 | 58.20082 | 8.07471 | 49 ft | 13 kts | 31° |
| 2026-04-23 12:53 | 58.20146 | 8.07545 | 46 ft | 4 kts | 31° |
| 2026-04-23 12:53 | 58.20170 | 8.07573 | 50 ft | 4 kts | 31° |
| 2026-04-23 12:54 | 58.20194 | 8.07567 | 50 ft | 4 kts | 324° |
| 2026-04-23 12:54 | 58.20207 | 8.07535 | 50 ft | 0 kts | 301° |
| 2026-04-23 12:54 | 58.20209 | 8.07531 | 50 ft | 1 kts | 302° |
| 2026-04-23 12:54 | 58.20214 | 8.07514 | 50 ft | 2 kts | 301° |
| 2026-04-23 12:55 | 58.20214 | 8.07513 | 50 ft | 0 kts | 301° |
| 2026-04-23 12:59 | 58.20198 | 8.07499 | 117 ft | 1 kts | 178° |
| 2026-04-23 13:00 | 58.20196 | 8.07499 | 118 ft | 1 kts | 178° |